createdAt,value
2019-05-01T00:00:36.527Z,6.23
2019-05-01T00:03:34.764Z,5.80
2019-05-01T00:06:05.585Z,12.30
2019-05-01T00:08:35.602Z,6.93
2019-05-01T00:11:05.665Z,8.20
2019-05-01T00:13:35.718Z,9.67
2019-05-01T00:16:05.814Z,7.57
2019-05-01T00:18:35.828Z,6.73
2019-05-01T00:21:05.883Z,9.40
2019-05-01T00:23:35.995Z,8.97
2019-05-01T00:26:06.255Z,6.23
2019-05-01T00:28:36.199Z,6.60
2019-05-01T00:31:06.331Z,5.63
2019-05-01T00:33:36.590Z,6.10
2019-05-01T00:36:06.516Z,5.00
2019-05-01T00:38:36.453Z,4.93
2019-05-01T00:41:06.390Z,7.73
2019-05-01T00:43:36.248Z,6.17
2019-05-01T00:46:06.182Z,6.10
2019-05-01T00:48:36.122Z,9.07
2019-05-01T00:51:06.121Z,5.70
2019-05-01T00:53:36.143Z,5.57
2019-05-01T00:56:24.239Z,6.87
2019-05-01T00:59:13.423Z,9.03
2019-05-01T01:02:05.211Z,7.53
2019-05-01T01:04:35.326Z,6.77
2019-05-01T01:07:05.352Z,5.53
2019-05-01T01:09:35.391Z,6.37
2019-05-01T01:12:05.619Z,6.93
2019-05-01T01:14:35.560Z,5.27
2019-05-01T01:17:05.499Z,5.63
2019-05-01T01:19:35.859Z,6.43
2019-05-01T01:22:05.863Z,9.17
2019-05-01T01:24:35.872Z,5.13
2019-05-01T01:27:05.896Z,5.70
2019-05-01T01:29:35.955Z,13.33
2019-05-01T01:32:06.024Z,15.97
2019-05-01T01:34:36.082Z,10.97
2019-05-01T01:37:06.122Z,8.37
2019-05-01T01:39:36.139Z,6.33
2019-05-01T01:42:07.200Z,8.10
2019-05-01T01:45:14.579Z,13.27
2019-05-01T01:48:02.476Z,5.73
2019-05-01T01:50:32.515Z,5.60
2019-05-01T01:53:02.625Z,9.03
2019-05-01T01:55:32.632Z,7.40
2019-05-01T01:58:02.963Z,6.10
2019-05-01T02:01:09.351Z,5.23
2019-05-01T02:03:37.159Z,12.00
2019-05-01T02:06:07.310Z,12.37
2019-05-01T02:08:37.351Z,10.50
2019-05-01T02:11:07.389Z,6.50
2019-05-01T02:13:37.380Z,8.30
2019-05-01T02:16:07.423Z,8.60
2019-05-01T02:18:37.438Z,12.57
2019-05-01T02:21:07.416Z,8.47
2019-05-01T02:23:37.399Z,8.27
2019-05-01T02:26:09.269Z,7.70
2019-05-01T02:28:54.338Z,6.67
2019-05-01T02:34:19.396Z,6.10
2019-05-01T02:36:51.823Z,7.37
2019-05-01T02:39:23.236Z,5.60
2019-05-01T02:41:54.734Z,5.27
2019-05-01T02:44:31.767Z,5.20
2019-05-01T02:47:04.721Z,4.60
2019-05-01T02:49:50.300Z,5.77
2019-05-01T02:52:23.434Z,4.73
2019-05-01T02:54:55.554Z,6.40
2019-05-01T02:57:25.877Z,6.27
2019-05-01T02:59:57.313Z,9.10
2019-05-01T03:02:28.616Z,6.70
2019-05-01T03:04:59.871Z,5.00
2019-05-01T03:07:33.550Z,5.77
2019-05-01T03:10:08.998Z,6.73
2019-05-01T03:12:39.993Z,4.33
2019-05-01T03:15:11.776Z,7.03
2019-05-01T03:17:51.093Z,5.47
2019-05-01T03:20:58.912Z,7.63
2019-05-01T03:23:41.817Z,7.80
2019-05-01T03:26:12.011Z,6.07
2019-05-01T03:28:42.227Z,7.27
2019-05-01T03:31:12.457Z,9.47
2019-05-01T03:33:42.468Z,9.77
2019-05-01T03:36:12.712Z,7.47
2019-05-01T03:38:43.205Z,7.20
2019-05-01T03:41:13.539Z,12.87
2019-05-01T03:43:43.561Z,8.97
2019-05-01T03:46:13.821Z,8.87
2019-05-01T03:48:43.849Z,9.93
2019-05-01T03:51:13.954Z,9.03
2019-05-01T03:53:44.209Z,10.00
2019-05-01T03:56:14.976Z,11.10
2019-05-01T03:58:45.023Z,13.73
2019-05-01T04:01:40.051Z,20.17
2019-05-01T04:04:16.546Z,18.40
2019-05-01T04:06:47.163Z,12.57
2019-05-01T04:09:17.281Z,11.10
2019-05-01T04:11:47.532Z,9.17
2019-05-01T04:14:17.640Z,12.47
2019-05-01T04:16:51.019Z,19.30
2019-05-01T04:19:21.263Z,11.20
2019-05-01T04:21:56.729Z,14.50
2019-05-01T04:24:26.864Z,17.57
2019-05-01T04:26:57.419Z,14.47
2019-05-01T04:29:33.773Z,12.33
2019-05-01T04:32:51.744Z,10.30
2019-05-01T04:35:19.064Z,19.07
2019-05-01T04:37:49.665Z,21.40
2019-05-01T04:40:19.931Z,22.30
2019-05-01T04:42:50.022Z,17.90
2019-05-01T04:45:21.263Z,21.77
2019-05-01T04:47:52.176Z,13.57
2019-05-01T04:50:22.579Z,12.90
2019-05-01T04:52:52.825Z,11.80
2019-05-01T04:55:23.735Z,14.77
2019-05-01T04:57:53.908Z,15.93
2019-05-01T05:00:24.249Z,12.60
2019-05-01T05:03:04.795Z,25.03
2019-05-01T05:05:34.059Z,16.93
2019-05-01T05:08:04.393Z,24.23
2019-05-01T05:10:34.819Z,13.30
2019-05-01T05:13:24.133Z,12.43
2019-05-01T05:16:19.359Z,27.13
2019-05-01T05:18:49.497Z,26.50
2019-05-01T05:21:19.846Z,31.37
2019-05-01T05:23:50.295Z,36.77
2019-05-01T05:26:20.479Z,24.97
2019-05-01T05:28:50.730Z,31.10
2019-05-01T05:31:22.394Z,23.10
2019-05-01T05:33:54.222Z,26.53
2019-05-01T05:36:27.685Z,23.80
2019-05-01T05:39:18.153Z,21.87
2019-05-01T05:41:50.378Z,28.90
2019-05-01T05:44:20.744Z,33.97
2019-05-01T05:46:50.759Z,13.50
2019-05-01T05:49:22.196Z,7.83
2019-05-01T05:52:14.227Z,15.37
2019-05-01T05:54:54.110Z,12.20
2019-05-01T05:57:35.343Z,24.33
2019-05-01T06:00:19.112Z,40.50
2019-05-01T06:03:02.200Z,18.63
2019-05-01T06:06:02.507Z,14.83
2019-05-01T06:08:35.367Z,30.70
2019-05-01T06:11:29.697Z,27.23
2019-05-01T06:14:12.739Z,17.40
2019-05-01T06:17:00.676Z,15.13
2019-05-01T06:19:49.700Z,9.47
2019-05-01T06:22:45.380Z,11.93
2019-05-01T06:25:24.896Z,28.07
2019-05-01T06:27:53.687Z,18.17
2019-05-01T06:30:23.828Z,24.23
2019-05-01T06:32:53.957Z,24.83
2019-05-01T06:35:24.614Z,11.93
2019-05-01T06:38:03.752Z,40.37
2019-05-01T06:40:39.512Z,15.97
2019-05-01T06:44:04.142Z,12.03
2019-05-01T06:46:58.089Z,16.53
2019-05-01T06:49:45.297Z,24.80
2019-05-01T06:52:19.681Z,14.10
2019-05-01T06:54:52.109Z,33.23
2019-05-01T06:57:22.971Z,21.43
2019-05-01T06:59:53.093Z,15.90
2019-05-01T07:02:24.434Z,29.30
2019-05-01T07:04:54.571Z,20.27
2019-05-01T07:07:25.813Z,20.10
2019-05-01T07:09:56.928Z,20.93
2019-05-01T07:12:30.054Z,18.40
2019-05-01T07:15:01.064Z,30.23
2019-05-01T07:17:31.263Z,29.70
2019-05-01T07:20:11.871Z,32.20
2019-05-01T07:22:42.530Z,32.30
2019-05-01T07:25:13.690Z,21.40
2019-05-01T07:27:43.756Z,27.70
2019-05-01T07:30:34.569Z,29.63
2019-05-01T07:33:04.690Z,23.20
2019-05-01T07:35:36.766Z,22.67
2019-05-01T07:38:06.984Z,19.20
2019-05-01T07:40:37.123Z,26.80
2019-05-01T07:43:26.327Z,20.10
2019-05-01T07:46:19.847Z,16.73
2019-05-01T07:48:49.872Z,27.80
2019-05-01T07:51:20.395Z,22.77
2019-05-01T07:53:50.727Z,17.83
2019-05-01T07:56:22.851Z,11.53
2019-05-01T07:58:53.371Z,22.07
2019-05-01T08:02:00.555Z,13.60
2019-05-01T08:04:37.788Z,37.13
2019-05-01T08:07:02.275Z,32.27
2019-05-01T08:09:33.562Z,20.53
2019-05-01T08:12:03.738Z,20.40
2019-05-01T08:14:33.810Z,43.77
2019-05-01T08:17:04.056Z,27.60
2019-05-01T08:19:53.180Z,23.33
2019-05-01T08:22:25.877Z,30.37
2019-05-01T08:24:58.638Z,35.63
2019-05-01T08:27:50.923Z,12.80
2019-05-01T08:30:37.939Z,35.03
2019-05-01T08:33:35.935Z,22.37
2019-05-01T08:36:11.719Z,37.43
2019-05-01T08:38:39.596Z,44.13
2019-05-01T08:41:09.551Z,34.27
2019-05-01T08:43:39.791Z,29.23
2019-05-01T08:46:50.853Z,24.63
2019-05-01T08:49:36.158Z,35.53
2019-05-01T08:52:12.569Z,26.43
2019-05-01T08:54:38.314Z,29.70
2019-05-01T08:57:08.439Z,14.70
2019-05-01T08:59:38.616Z,16.00
2019-05-01T09:02:09.873Z,27.30
2019-05-01T09:04:40.060Z,16.27
2019-05-01T09:07:10.091Z,17.60
2019-05-01T09:09:45.456Z,23.93
2019-05-01T09:12:13.572Z,27.50
2019-05-01T09:14:43.984Z,26.43
2019-05-01T09:17:13.974Z,28.80
2019-05-01T09:19:43.923Z,27.20
2019-05-01T09:22:14.000Z,19.90
2019-05-01T09:24:44.818Z,23.43
2019-05-01T09:27:24.113Z,17.83
2019-05-01T09:29:55.460Z,33.90
2019-05-01T09:32:25.501Z,29.73
2019-05-01T09:34:58.234Z,32.67
2019-05-01T09:37:27.300Z,32.13
2019-05-01T09:39:57.287Z,21.77
2019-05-01T09:42:27.390Z,32.90
2019-05-01T09:45:00.439Z,20.47
2019-05-01T09:47:30.838Z,20.50
2019-05-01T09:50:00.907Z,24.83
2019-05-01T09:52:41.511Z,24.07
2019-05-01T09:55:23.194Z,21.43
2019-05-01T09:57:50.316Z,27.03
2019-05-01T10:00:29.361Z,24.60
2019-05-01T10:02:59.656Z,23.53
2019-05-01T10:05:29.687Z,24.30
2019-05-01T10:08:03.793Z,27.57
2019-05-01T10:10:31.531Z,28.63
2019-05-01T10:13:01.525Z,24.30
2019-05-01T10:15:31.610Z,37.07
2019-05-01T10:18:01.583Z,39.17
2019-05-01T10:20:31.685Z,37.07
2019-05-01T10:23:01.808Z,26.93
2019-05-01T10:25:32.378Z,36.70
2019-05-01T10:28:11.745Z,33.40
2019-05-01T10:30:55.234Z,22.93
2019-05-01T10:33:29.051Z,30.00
2019-05-01T10:36:18.267Z,26.57
2019-05-01T10:38:44.959Z,29.13
2019-05-01T10:41:15.571Z,37.70
2019-05-01T10:43:45.696Z,29.10
2019-05-01T10:46:15.718Z,30.50
2019-05-01T10:48:45.806Z,29.63
2019-05-01T10:51:15.783Z,26.47
2019-05-01T10:53:45.800Z,31.60
2019-05-01T10:56:16.059Z,36.10
2019-05-01T10:58:46.163Z,31.17
2019-05-01T11:01:21.944Z,33.37
2019-05-01T11:03:55.516Z,44.77
2019-05-01T11:06:26.792Z,40.27
2019-05-01T11:08:57.006Z,36.90
2019-05-01T11:11:27.992Z,40.03
2019-05-01T11:13:58.453Z,30.60
2019-05-01T11:16:28.563Z,33.00
2019-05-01T11:18:58.650Z,41.23
2019-05-01T11:21:28.827Z,36.17
2019-05-01T11:23:59.157Z,43.90
2019-05-01T11:26:29.463Z,38.53
2019-05-01T11:28:59.570Z,35.27
2019-05-01T11:31:37.443Z,31.50
2019-05-01T11:34:29.867Z,32.90
2019-05-01T11:37:17.915Z,35.77
2019-05-01T11:39:55.633Z,43.03
2019-05-01T11:42:25.712Z,35.87
2019-05-01T11:44:55.899Z,34.77
2019-05-01T11:47:25.960Z,37.07
2019-05-01T11:49:57.684Z,35.63
2019-05-01T11:52:27.755Z,33.27
2019-05-01T11:54:58.848Z,40.53
2019-05-01T11:57:29.016Z,31.20
2019-05-01T11:59:59.025Z,32.83
2019-05-01T12:02:29.060Z,35.10
2019-05-01T12:04:59.114Z,29.90
2019-05-01T12:07:29.188Z,28.53
2019-05-01T12:09:59.216Z,31.83
2019-05-01T12:12:31.048Z,30.97
2019-05-01T12:15:01.428Z,28.33
2019-05-01T12:17:39.064Z,26.30
2019-05-01T12:20:09.932Z,30.53
2019-05-01T12:22:41.680Z,30.20
2019-05-01T12:25:11.804Z,29.03
2019-05-01T12:27:41.922Z,31.17
2019-05-01T12:30:13.275Z,29.77
2019-05-01T12:32:43.367Z,26.53
2019-05-01T12:35:15.368Z,34.63
2019-05-01T12:37:45.619Z,30.67
2019-05-01T12:40:17.857Z,32.97
2019-05-01T12:42:47.959Z,29.63
2019-05-01T12:45:18.400Z,34.97
2019-05-01T12:48:02.715Z,203.27
2019-05-01T12:50:32.760Z,177.40
2019-05-01T12:53:25.109Z,77.97
2019-05-01T12:56:17.696Z,51.30
2019-05-01T12:58:49.539Z,38.80
2019-05-01T13:01:19.731Z,34.73
2019-05-01T13:03:49.839Z,32.80
2019-05-01T13:06:20.082Z,33.83
2019-05-01T13:08:51.743Z,33.00
2019-05-01T13:11:21.933Z,34.53
2019-05-01T13:13:52.049Z,33.97
2019-05-01T13:16:22.618Z,35.43
2019-05-01T13:18:52.641Z,36.20
2019-05-01T13:21:22.695Z,37.33
2019-05-01T13:23:52.700Z,36.40
2019-05-01T13:26:31.404Z,37.67
2019-05-01T13:29:09.603Z,34.87
2019-05-01T13:31:57.823Z,31.20
2019-05-01T13:34:30.903Z,30.03
2019-05-01T13:37:03.286Z,36.73
2019-05-01T13:39:32.756Z,35.53
2019-05-01T13:42:02.892Z,37.03
2019-05-01T13:44:33.107Z,36.30
2019-05-01T13:47:03.205Z,37.03
2019-05-01T13:49:33.155Z,33.00
2019-05-01T13:52:03.233Z,36.77
2019-05-01T13:54:33.307Z,32.60
2019-05-01T13:57:03.610Z,34.53
2019-05-01T13:59:33.619Z,34.10
2019-05-01T14:02:03.876Z,36.63
2019-05-01T14:04:34.127Z,34.97
2019-05-01T14:07:15.899Z,37.83
2019-05-01T14:09:36.888Z,31.40
2019-05-01T14:12:07.838Z,32.33
2019-05-01T14:14:38.066Z,34.77
2019-05-01T14:17:08.123Z,39.63
2019-05-01T14:19:39.875Z,32.87
2019-05-01T14:22:38.724Z,32.43
2019-05-01T14:25:11.505Z,34.17
2019-05-01T14:27:41.680Z,34.27
2019-05-01T14:30:13.754Z,29.13
2019-05-01T14:32:43.905Z,30.40
2019-05-01T14:35:14.105Z,32.20
2019-05-01T14:37:44.147Z,34.70
2019-05-01T14:40:14.504Z,30.60
2019-05-01T14:42:44.464Z,27.40
2019-05-01T14:45:14.608Z,29.47
2019-05-01T14:47:44.769Z,30.63
2019-05-01T14:50:15.170Z,31.43
2019-05-01T14:52:45.271Z,42.00
2019-05-01T14:55:15.355Z,36.30
2019-05-01T14:57:45.495Z,35.50
2019-05-01T15:00:16.372Z,35.80
2019-05-01T15:02:46.431Z,34.73
2019-05-01T15:05:16.477Z,33.80
2019-05-01T15:07:46.584Z,28.40
2019-05-01T15:10:16.756Z,25.43
2019-05-01T15:12:48.384Z,36.47
2019-05-01T15:15:35.412Z,29.00
2019-05-01T15:18:16.259Z,35.27
2019-05-01T15:20:46.560Z,33.20
2019-05-01T15:23:16.713Z,34.77
2019-05-01T15:25:46.647Z,31.70
2019-05-01T15:28:16.715Z,32.30
2019-05-01T15:30:46.877Z,29.47
2019-05-01T15:33:17.057Z,27.50
2019-05-01T15:35:47.309Z,34.77
2019-05-01T15:38:17.608Z,26.20
2019-05-01T15:40:56.591Z,29.40
2019-05-01T15:43:31.948Z,34.10
2019-05-01T15:46:01.992Z,31.23
2019-05-01T15:48:32.020Z,28.10
2019-05-01T15:51:02.105Z,34.00
2019-05-01T15:53:32.167Z,28.50
2019-05-01T15:56:02.342Z,36.63
2019-05-01T15:58:32.375Z,41.37
2019-05-01T16:01:02.855Z,36.87
2019-05-01T16:03:32.897Z,31.33
2019-05-01T16:06:02.955Z,28.83
2019-05-01T16:08:32.869Z,41.40
2019-05-01T16:11:22.008Z,33.70
2019-05-01T16:13:52.114Z,32.87
2019-05-01T16:16:24.217Z,33.80
2019-05-01T16:18:54.336Z,28.77
2019-05-01T16:21:24.472Z,27.77
2019-05-01T16:23:54.559Z,34.97
2019-05-01T16:26:24.623Z,29.83
2019-05-01T16:28:54.822Z,32.20
2019-05-01T16:31:24.980Z,35.20
2019-05-01T16:33:55.096Z,27.10
2019-05-01T16:36:25.221Z,27.77
2019-05-01T16:39:07.755Z,24.77
2019-05-01T16:41:37.876Z,30.93
2019-05-01T16:44:08.042Z,28.70
2019-05-01T16:46:38.218Z,41.43
2019-05-01T16:49:08.236Z,40.30
2019-05-01T16:51:38.331Z,33.63
2019-05-01T16:54:08.678Z,29.00
2019-05-01T16:56:38.820Z,25.87
2019-05-01T16:59:08.904Z,24.50
2019-05-01T17:01:57.720Z,21.60
2019-05-01T17:04:36.359Z,21.47
2019-05-01T17:07:27.032Z,28.43
2019-05-01T17:10:17.662Z,25.60
2019-05-01T17:12:49.559Z,28.73
2019-05-01T17:15:33.511Z,26.60
2019-05-01T17:18:03.882Z,31.97
2019-05-01T17:20:33.972Z,27.97
2019-05-01T17:23:05.609Z,24.53
2019-05-01T17:25:36.146Z,22.13
2019-05-01T17:28:08.127Z,19.00
2019-05-01T17:30:43.117Z,22.07
2019-05-01T17:33:19.514Z,15.90
2019-05-01T17:35:44.987Z,20.97
2019-05-01T17:38:15.038Z,22.47
2019-05-01T17:40:47.332Z,14.17
2019-05-01T17:43:17.445Z,15.27
2019-05-01T17:45:47.507Z,27.27
2019-05-01T17:48:17.534Z,25.30
2019-05-01T17:50:47.591Z,23.47
2019-05-01T17:53:17.631Z,25.30
2019-05-01T17:55:47.726Z,30.63
2019-05-01T17:58:17.733Z,19.03
2019-05-01T18:01:27.928Z,22.17
2019-05-01T18:04:14.766Z,22.33
2019-05-01T18:06:47.922Z,18.43
2019-05-01T18:09:18.552Z,18.17
2019-05-01T18:11:52.145Z,23.17
2019-05-01T18:14:20.423Z,17.77
2019-05-01T18:16:50.615Z,25.50
2019-05-01T18:19:20.730Z,24.37
2019-05-01T18:22:03.495Z,27.20
2019-05-01T18:24:58.504Z,20.20
2019-05-01T18:27:45.268Z,21.00
2019-05-01T18:30:20.616Z,18.67
2019-05-01T18:32:52.322Z,14.40
2019-05-01T18:35:21.883Z,24.23
2019-05-01T18:38:06.190Z,15.70
2019-05-01T18:40:42.059Z,22.90
2019-05-01T18:43:12.337Z,26.90
2019-05-01T18:45:48.284Z,23.27
2019-05-01T18:48:18.961Z,18.87
2019-05-01T18:50:54.191Z,15.60
2019-05-01T18:53:21.251Z,14.63
2019-05-01T18:55:51.380Z,11.80
2019-05-01T18:58:21.520Z,12.13
2019-05-01T19:00:51.735Z,12.13
2019-05-01T19:03:22.543Z,13.40
2019-05-01T19:05:52.747Z,12.20
2019-05-01T19:08:22.842Z,9.17
2019-05-01T19:10:52.917Z,8.73
2019-05-01T19:13:23.244Z,16.70
2019-05-01T19:15:53.194Z,8.20
2019-05-01T19:18:23.335Z,8.23
2019-05-01T19:20:59.651Z,7.77
2019-05-01T19:23:27.976Z,10.50
2019-05-01T19:26:04.932Z,9.13
2019-05-01T19:28:28.927Z,12.30
2019-05-01T19:30:58.941Z,8.13
2019-05-01T19:33:28.920Z,8.53
2019-05-01T19:36:02.549Z,7.47
2019-05-01T19:38:34.794Z,8.63
2019-05-01T19:41:03.508Z,11.07
2019-05-01T19:43:35.842Z,7.17
2019-05-01T19:46:06.063Z,11.07
2019-05-01T19:48:36.163Z,9.40
2019-05-01T19:51:06.187Z,8.80
2019-05-01T19:53:36.258Z,10.20
2019-05-01T19:56:06.360Z,8.87
2019-05-01T19:58:36.501Z,7.80
2019-05-01T20:01:06.603Z,8.07
2019-05-01T20:03:38.435Z,17.97
2019-05-01T20:06:08.493Z,11.50
2019-05-01T20:08:38.643Z,43.13
2019-05-01T20:11:09.699Z,28.90
2019-05-01T20:13:40.123Z,28.27
2019-05-01T20:16:10.503Z,28.00
2019-05-01T20:18:40.492Z,22.77
2019-05-01T20:21:10.533Z,28.73
2019-05-01T20:23:40.599Z,16.80
2019-05-01T20:26:10.651Z,14.63
2019-05-01T20:28:40.668Z,20.67
2019-05-01T20:31:10.835Z,30.87
2019-05-01T20:33:44.107Z,32.17
2019-05-01T20:36:12.714Z,20.37
2019-05-01T20:38:42.785Z,14.20
2019-05-01T20:41:15.835Z,32.00
2019-05-01T20:43:45.425Z,20.40
2019-05-01T20:46:15.610Z,39.90
2019-05-01T20:48:45.515Z,28.73
2019-05-01T20:51:15.531Z,36.67
2019-05-01T20:53:45.443Z,27.20
2019-05-01T20:56:29.704Z,23.63
2019-05-01T20:59:03.185Z,33.63
2019-05-01T21:01:32.020Z,24.90
2019-05-01T21:04:21.234Z,21.57
2019-05-01T21:07:15.537Z,22.77
2019-05-01T21:09:47.688Z,13.70
2019-05-01T21:12:16.826Z,14.70
2019-05-01T21:14:49.739Z,24.37
2019-05-01T21:17:18.607Z,20.63
2019-05-01T21:19:48.665Z,16.27
2019-05-01T21:22:18.682Z,17.80
2019-05-01T21:24:48.722Z,27.53
2019-05-01T21:27:18.803Z,27.60
2019-05-01T21:29:48.767Z,21.13
2019-05-01T21:32:23.618Z,32.00
2019-05-01T21:34:50.643Z,29.77
2019-05-01T21:37:20.759Z,27.13
2019-05-01T21:39:50.727Z,28.67
2019-05-01T21:42:20.626Z,33.50
2019-05-01T21:44:50.545Z,29.30
2019-05-01T21:47:20.610Z,23.10
2019-05-01T21:49:52.550Z,26.57
2019-05-01T21:52:26.624Z,16.80
2019-05-01T21:54:55.326Z,19.97
2019-05-01T21:57:29.601Z,20.80
2019-05-01T21:59:57.756Z,25.70
2019-05-01T22:02:27.773Z,14.90
2019-05-01T22:05:03.799Z,17.23
2019-05-01T22:07:31.145Z,12.63
2019-05-01T22:10:01.410Z,12.53
2019-05-01T22:12:31.440Z,19.33
2019-05-01T22:15:06.212Z,23.07
2019-05-01T22:17:54.972Z,11.80
2019-05-01T22:20:33.547Z,12.47
2019-05-01T22:23:08.140Z,32.60
2019-05-01T22:25:42.326Z,32.73
2019-05-01T22:28:18.771Z,28.70
2019-05-01T22:31:08.235Z,23.70
2019-05-01T22:33:39.043Z,20.80
2019-05-01T22:36:09.175Z,14.80
2019-05-01T22:38:39.194Z,23.30
2019-05-01T22:41:13.142Z,30.33
2019-05-01T22:43:43.090Z,17.77
2019-05-01T22:46:33.835Z,21.37
2019-05-01T22:49:03.286Z,18.70
2019-05-01T22:51:33.307Z,17.97
2019-05-01T22:54:03.351Z,17.37
2019-05-01T22:56:33.318Z,12.83
2019-05-01T22:59:03.467Z,12.23
2019-05-01T23:01:33.494Z,11.80
2019-05-01T23:04:06.000Z,12.57
2019-05-01T23:06:37.259Z,18.47
2019-05-01T23:09:09.937Z,23.57
2019-05-01T23:11:42.799Z,24.97
2019-05-01T23:14:12.910Z,31.90
2019-05-01T23:16:53.247Z,25.23
2019-05-01T23:19:27.750Z,22.33
2019-05-01T23:21:55.076Z,26.53
2019-05-01T23:24:24.934Z,29.03
2019-05-01T23:26:54.976Z,21.07
2019-05-01T23:29:24.911Z,20.53
2019-05-01T23:31:55.310Z,21.10
2019-05-01T23:34:26.320Z,20.63
2019-05-01T23:36:56.918Z,28.10
2019-05-01T23:39:26.936Z,20.10
2019-05-01T23:41:56.962Z,19.27
2019-05-01T23:44:26.824Z,19.57
2019-05-01T23:46:56.852Z,20.80
2019-05-01T23:49:27.099Z,24.37
2019-05-01T23:51:58.663Z,15.43
2019-05-01T23:54:28.774Z,20.20
2019-05-01T23:56:58.868Z,36.03
2019-05-01T23:59:28.957Z,17.23
